Otto, Texas
Current Conditions -  °F | °C
As of 7:53 PM on Friday 24 Oct 2014 (Local Time) from KCNW Reporting Station
Clear Clear  
Wind Chill: 72°   Ceiling: Unl
Heat Index: 72°   Visibility: 10mi
Dew Point: 63°   Wind: 3mph
Humidity: 73%   Direction: 140°SE
Pressure: 30.1"   Gusts: NA
Location:  31.45°N, 96.81°W
Report Text: KCNW 250053Z 14003KT 10SM SKC 22/17 A3010
Loading
Personal Weather Stations






























Interactive Weather Map
Tropical Storm Tracking
New forecast layout! Learn more

10-Day Weather Forecast

Advertisements
Track Severe Weather on mobile